map of SLZ home
Great Circle Mapper logo
SLZ - Airport
Location
City:  São Luis, Maranhão, Brazil
Name:Marechal Cunha Machado International Airport
ICAO / IATA:SBSL / SLZ

Details
Type:Airport (Aerodrome, Airfield)
Use:Public/Civil, International (customs port of entry)
Latitude:2°35'07"S (-2.585360)
Longitude:44°14'03"W (-44.234138)
Datum:WGS 1984
Elevation:178 ft (54 m)
Runways:2
Longest:7850 × 148 ft (2393 × 45 m), paved

Time
Time Zone:UTC-3
Local Time:

Weather
METAR:SBSL 230000Z 03012KT 9999 FEW017 27/21 Q1012

Related Locations
Nearby:
Farthest:FOO: 12181 mi / 19604 km
Numfoor [Kornasoren], Irian Jaya Island, ID

Find:

   beyond  
but within

Other Information
Maps:
NOTAMs:
Links:
Sources:

  
flag of Brazil
flag of Maranhão
  

Sectional Chart

Flight Planning
at skyvector.com

Satellite Image

Google Maps Satellite View

 

Copyright © 2004-2014 Karl L. Swartz. All rights reserved.
The Great Circle Mapper name and logo are trademarks of the Great Circle Mapper.
All other trademarks mentioned herein belong to their respective owners.
Please see credits for attibutions and further copyright information.

  Follow gcmap on Facebook Follow gcmap on Twitter

hCard Microformat

Geo Microformat